Погода Целеховизнана неделю

Мазовецкое воеводство, Польша

13 - 19 июля
  • 13июля
    Сегодня
    +16°
    +29°
    Ясно и безоблачно
    ВремяПогодаТемператураВлажностьДавлениеВетер, м/сВероятность осадков
    02:00Небольшая облачность+23°C71 %742 мм4.8 м/с14 %
    05:00Пасмурно, дожди с грозами+22°C75 %742 мм3.2 м/с32 %
    08:00Облачно с прояснениями+23°C80 %742 мм4.0 м/с44 %
    11:00Ясно и безоблачно+26°C60 %742 мм5.1 м/с8 %
    14:00Ясно и безоблачно+28°C48 %743 мм4.7 м/с3 %
    17:00Практически безоблачно+28°C44 %743 мм4.7 м/с7 %
    20:00Ясно и безоблачно+25°C54 %744 мм3.1 м/с2 %
    23:00Ясно и безоблачно+20°C64 %745 мм3.0 м/с2 %
  • 14июля
    Воскресенье
    +16°
    +25°
    Облачно с прояснениями
    ВремяПогодаТемператураВлажностьДавлениеВетер, м/сВероятность осадков
    02:00Ясно и безоблачно+18°C78 %746 мм2.2 м/с2 %
    05:00Облачно с прояснениями+17°C81 %746 мм2.7 м/с12 %
    08:00Пасмурно, ливень+19°C78 %747 мм3.4 м/с65 %
    11:00Пасмурно, небольшой дождь+21°C54 %746 мм3.6 м/с44 %
    14:00Облачно с прояснениями+24°C51 %746 мм1.9 м/с11 %
    17:00Пасмурно, сплошная облачность+24°C58 %745 мм2.0 м/с15 %
    20:00Облачно с прояснениями+21°C64 %746 мм2.4 м/с14 %
    23:00Небольшая облачность+19°C69 %746 мм2.6 м/с4 %
  • 15июля
    Понедельник
    +18°
    +29°
    Ясно и безоблачно
    ВремяПогодаТемператураВлажностьДавлениеВетер, м/сВероятность осадков
    02:00Облачно с прояснениями+17°C81 %747 мм2.0 м/с2 %
    05:00Облачно с прояснениями+17°C93 %747 мм1.5 м/с2 %
    08:00Небольшая облачность+22°C76 %748 мм0.6 м/с2 %
    11:00Практически безоблачно+25°C54 %748 мм0.6 м/с2 %
    14:00Ясно и безоблачно+28°C43 %747 мм1.2 м/с4 %
    17:00Практически безоблачно+29°C41 %747 мм1.4 м/с5 %
    20:00Ясно и безоблачно+25°C59 %747 мм1.2 м/с3 %
    23:00Ясно и безоблачно+21°C66 %747 мм2.4 м/с2 %
  • 16июля
    Вторник
    +19°
    +34°
    Практически безоблачно
    ВремяПогодаТемператураВлажностьДавлениеВетер, м/сВероятность осадков
    02:00Ясно и безоблачно+20°C70 %746 мм2.7 м/с2 %
    05:00Ясно и безоблачно+19°C77 %746 мм2.2 м/с2 %
    08:00Практически безоблачно+25°C60 %747 мм2.1 м/с2 %
    11:00Ясно и безоблачно+29°C47 %746 мм4.1 м/с4 %
    14:00Практически безоблачно+31°C49 %745 мм3.8 м/с11 %
    17:00Небольшая облачность, возможен дождь с грозой+29°C71 %745 мм3.1 м/с30 %
    20:00Практически безоблачно+26°C88 %745 мм3.6 м/с36 %
    23:00Практически безоблачно+23°C93 %745 мм2.4 м/с35 %
  • 17июля
    Среда
    +15°
    +28°
    Ясно и безоблачно
    ВремяПогодаТемператураВлажностьДавлениеВетер, м/сВероятность осадков
    02:00Небольшая облачность+22°C94 %745 мм2.6 м/с21 %
    05:00Облачно с прояснениями+20°C96 %746 мм3.3 м/с21 %
    08:00Ясно и безоблачно+22°C83 %748 мм3.8 м/с19 %
    11:00Ясно и безоблачно+26°C58 %748 мм3.7 м/с29 %
    14:00Ясно и безоблачно+28°C48 %749 мм3.8 м/с28 %
    17:00Практически безоблачно+27°C45 %748 мм3.6 м/с25 %
    20:00Небольшая облачность+24°C55 %749 мм2.2 м/с18 %
    23:00Практически безоблачно+21°C63 %749 мм2.0 м/с5 %
Мы используем cookies
Соглашаюсь